KNPA/NPA METAR and TAF weather

Enter ICAO airport designator
Station Type Date Time Source
KNPA METAR 2020/07/05 03:56 UTC NOAA

KNPA 050356Z 00000KT 7SM SCT140 SCT250 26/23 A2988 RMK AO2 RAB07E12 SLP120 P0000 T02560233


Station Type Date Time Source
KNPA Decoded METAR 2020/07/05 03:56 UTC NOAA

Pensacola, Naval Air Station, FL, United States (KNPA) 30-21-22N 087-19-24W 10M
Jul 04, 2020 - 11:56 PM EDT / 2020.07.05 0356 UTC
Wind: Calm:0
Visibility: 7 mile(s):0
Sky conditions: partly cloudy
Precipitation last hour: A trace
Temperature: 78.1 F (25.6 C)
Dew Point: 73.9 F (23.3 C)
Relative Humidity: 87%
Pressure (altimeter): 29.88 in. Hg (1011 hPa)
ob: KNPA 050356Z 00000KT 7SM SCT140 SCT250 26/23 A2988 RMK AO2 RAB07E12 SLP120 P0000 T02560233
cycle: 4

Station Type Date Time Source
KNPA TAF 2020/07/04 23:12 UTC NOAA

TAF KNPA 0423/0523 15008KT 9999 VCTS SCT025CB BKN050 QNH2980INS
TEMPO 0423/0501 VRB25G35KT 1600 TSRA
FM050100 VRB06KT 9999 VCSH SCT030 BKN120 BKN180 QNHNH2980INS
FM050700 VRB06KT 9000 -RA VCTS SCT025CB BKN060 BKN120 QNH2979INS
TEMPO 0510/0514 VRB25G30KT 6000 TSRA BKN010CB BKN050
FM051500 15010KT 6000 -SHRA BKN040 BKN140 QNH2980INS
FM052100 17012KT SCT040 BKN100 BKN1410 QNH2975INS AUTOMATED SENSOR METWATCH 0423 TIL 0610 T27/0503Z T24/0511Z FN00230

Example: see airport list